sensor_id;sensor_type;location;lat;lon;timestamp;temperature;humidity
69503;SHT31;56704;54.242;12.442;2024-03-02T00:01:12;6.48;87.22
69503;SHT31;56704;54.242;12.442;2024-03-02T00:03:39;6.46;87.36
69503;SHT31;56704;54.242;12.442;2024-03-02T00:06:06;6.45;87.36
69503;SHT31;56704;54.242;12.442;2024-03-02T00:08:33;6.48;87.35
69503;SHT31;56704;54.242;12.442;2024-03-02T00:13:33;6.44;87.39
69503;SHT31;56704;54.242;12.442;2024-03-02T00:16:01;6.45;87.47
69503;SHT31;56704;54.242;12.442;2024-03-02T00:18:32;6.41;87.57
69503;SHT31;56704;54.242;12.442;2024-03-02T00:20:59;6.40;87.64
69503;SHT31;56704;54.242;12.442;2024-03-02T00:23:30;6.35;87.70
69503;SHT31;56704;54.242;12.442;2024-03-02T00:25:57;6.35;87.87
69503;SHT31;56704;54.242;12.442;2024-03-02T00:28:27;6.35;87.93
69503;SHT31;56704;54.242;12.442;2024-03-02T00:30:58;6.32;87.93
69503;SHT31;56704;54.242;12.442;2024-03-02T00:33:27;6.32;88.10
69503;SHT31;56704;54.242;12.442;2024-03-02T00:35:56;6.34;88.12
69503;SHT31;56704;54.242;12.442;2024-03-02T00:38:23;6.28;88.19
69503;SHT31;56704;54.242;12.442;2024-03-02T00:40:51;6.25;88.26
69503;SHT31;56704;54.242;12.442;2024-03-02T00:43:42;6.24;88.31
69503;SHT31;56704;54.242;12.442;2024-03-02T00:46:11;6.20;88.40
69503;SHT31;56704;54.242;12.442;2024-03-02T00:48:38;6.20;88.45
69503;SHT31;56704;54.242;12.442;2024-03-02T00:51:06;6.22;88.56
69503;SHT31;56704;54.242;12.442;2024-03-02T00:53:33;6.24;88.59
69503;SHT31;56704;54.242;12.442;2024-03-02T00:56:01;6.21;88.61
69503;SHT31;56704;54.242;12.442;2024-03-02T00:58:27;6.22;88.62
69503;SHT31;56704;54.242;12.442;2024-03-02T01:00:54;6.22;88.63
69503;SHT31;56704;54.242;12.442;2024-03-02T01:03:21;6.22;88.70
69503;SHT31;56704;54.242;12.442;2024-03-02T01:05:47;6.21;88.78
69503;SHT31;56704;54.242;12.442;2024-03-02T01:08:15;6.22;88.81
69503;SHT31;56704;54.242;12.442;2024-03-02T01:10:42;6.22;88.76
69503;SHT31;56704;54.242;12.442;2024-03-02T01:13:09;6.22;88.77
69503;SHT31;56704;54.242;12.442;2024-03-02T01:15:35;6.21;88.80
69503;SHT31;56704;54.242;12.442;2024-03-02T01:18:02;6.20;88.83
69503;SHT31;56704;54.242;12.442;2024-03-02T01:20:29;6.17;89.03
69503;SHT31;56704;54.242;12.442;2024-03-02T01:22:56;6.16;89.15
69503;SHT31;56704;54.242;12.442;2024-03-02T01:25:23;6.14;89.25
69503;SHT31;56704;54.242;12.442;2024-03-02T01:27:50;6.16;89.18
69503;SHT31;56704;54.242;12.442;2024-03-02T01:30:17;6.14;89.14
69503;SHT31;56704;54.242;12.442;2024-03-02T01:32:44;6.11;89.17
69503;SHT31;56704;54.242;12.442;2024-03-02T01:35:10;6.11;89.23
69503;SHT31;56704;54.242;12.442;2024-03-02T01:37:37;6.11;89.32
69503;SHT31;56704;54.242;12.442;2024-03-02T01:40:04;6.10;89.41
69503;SHT31;56704;54.242;12.442;2024-03-02T01:42:36;6.13;89.40
69503;SHT31;56704;54.242;12.442;2024-03-02T01:45:04;6.14;89.41
69503;SHT31;56704;54.242;12.442;2024-03-02T01:47:31;6.20;89.36
69503;SHT31;56704;54.242;12.442;2024-03-02T01:49:59;6.22;89.30
69503;SHT31;56704;54.242;12.442;2024-03-02T01:52:26;6.22;89.24
69503;SHT31;56704;54.242;12.442;2024-03-02T01:54:53;6.25;89.24
69503;SHT31;56704;54.242;12.442;2024-03-02T01:57:20;6.27;89.24
69503;SHT31;56704;54.242;12.442;2024-03-02T01:59:48;6.28;89.17
69503;SHT31;56704;54.242;12.442;2024-03-02T02:02:16;6.32;89.17
69503;SHT31;56704;54.242;12.442;2024-03-02T02:04:42;6.32;89.14
69503;SHT31;56704;54.242;12.442;2024-03-02T02:07:09;6.31;89.11
69503;SHT31;56704;54.242;12.442;2024-03-02T02:09:36;6.34;89.11
69503;SHT31;56704;54.242;12.442;2024-03-02T02:12:03;6.38;89.07
69503;SHT31;56704;54.242;12.442;2024-03-02T02:14:32;6.44;89.00
69503;SHT31;56704;54.242;12.442;2024-03-02T02:17:00;6.42;88.91
69503;SHT31;56704;54.242;12.442;2024-03-02T02:19:26;6.48;88.90
69503;SHT31;56704;54.242;12.442;2024-03-02T02:21:55;6.54;88.85
69503;SHT31;56704;54.242;12.442;2024-03-02T02:24:21;6.54;88.77
69503;SHT31;56704;54.242;12.442;2024-03-02T02:26:48;6.59;88.78
69503;SHT31;56704;54.242;12.442;2024-03-02T02:29:14;6.62;88.70
69503;SHT31;56704;54.242;12.442;2024-03-02T02:31:41;6.62;88.59
69503;SHT31;56704;54.242;12.442;2024-03-02T02:34:08;6.64;88.50
69503;SHT31;56704;54.242;12.442;2024-03-02T02:36:37;6.68;88.41
69503;SHT31;56704;54.242;12.442;2024-03-02T02:39:07;6.67;88.28
69503;SHT31;56704;54.242;12.442;2024-03-02T02:41:36;6.65;88.12
69503;SHT31;56704;54.242;12.442;2024-03-02T02:44:02;6.68;88.05
69503;SHT31;56704;54.242;12.442;2024-03-02T02:46:29;6.67;88.01
69503;SHT31;56704;54.242;12.442;2024-03-02T02:48:56;6.65;87.86
69503;SHT31;56704;54.242;12.442;2024-03-02T02:51:22;6.65;87.78
69503;SHT31;56704;54.242;12.442;2024-03-02T02:53:50;6.64;87.78
69503;SHT31;56704;54.242;12.442;2024-03-02T02:56:18;6.69;87.72
69503;SHT31;56704;54.242;12.442;2024-03-02T02:58:45;6.67;87.61
69503;SHT31;56704;54.242;12.442;2024-03-02T03:01:11;6.67;87.58
69503;SHT31;56704;54.242;12.442;2024-03-02T03:03:38;6.65;87.51
69503;SHT31;56704;54.242;12.442;2024-03-02T03:06:05;6.64;87.56
69503;SHT31;56704;54.242;12.442;2024-03-02T03:08:31;6.61;87.55
69503;SHT31;56704;54.242;12.442;2024-03-02T03:10:58;6.59;87.65
69503;SHT31;56704;54.242;12.442;2024-03-02T03:13:26;6.64;87.73
69503;SHT31;56704;54.242;12.442;2024-03-02T03:15:52;6.67;87.83
69503;SHT31;56704;54.242;12.442;2024-03-02T03:18:19;6.69;87.88
69503;SHT31;56704;54.242;12.442;2024-03-02T03:20:46;6.67;87.90
69503;SHT31;56704;54.242;12.442;2024-03-02T03:23:12;6.67;87.95
69503;SHT31;56704;54.242;12.442;2024-03-02T03:25:40;6.69;87.96
69503;SHT31;56704;54.242;12.442;2024-03-02T03:28:07;6.69;87.87
69503;SHT31;56704;54.242;12.442;2024-03-02T03:30:36;6.72;87.81
69503;SHT31;56704;54.242;12.442;2024-03-02T03:33:03;6.68;87.81
69503;SHT31;56704;54.242;12.442;2024-03-02T03:35:31;6.65;87.85
69503;SHT31;56704;54.242;12.442;2024-03-02T03:37:57;6.67;87.87
69503;SHT31;56704;54.242;12.442;2024-03-02T03:40:24;6.64;87.85
69503;SHT31;56704;54.242;12.442;2024-03-02T03:42:51;6.65;87.83
69503;SHT31;56704;54.242;12.442;2024-03-02T03:45:18;6.62;87.79
69503;SHT31;56704;54.242;12.442;2024-03-02T03:47:46;6.58;87.88
69503;SHT31;56704;54.242;12.442;2024-03-02T03:50:13;6.55;88.03
69503;SHT31;56704;54.242;12.442;2024-03-02T03:52:39;6.52;88.12
69503;SHT31;56704;54.242;12.442;2024-03-02T03:55:06;6.54;88.15
69503;SHT31;56704;54.242;12.442;2024-03-02T03:57:33;6.48;88.37
69503;SHT31;56704;54.242;12.442;2024-03-02T04:00:00;6.52;88.43
69503;SHT31;56704;54.242;12.442;2024-03-02T04:02:26;6.48;88.56
69503;SHT31;56704;54.242;12.442;2024-03-02T04:04:54;6.45;88.72
69503;SHT31;56704;54.242;12.442;2024-03-02T04:07:21;6.46;88.73
69503;SHT31;56704;54.242;12.442;2024-03-02T04:09:48;6.41;88.93
69503;SHT31;56704;54.242;12.442;2024-03-02T04:12:14;6.42;89.01
69503;SHT31;56704;54.242;12.442;2024-03-02T04:14:41;6.41;89.07
69503;SHT31;56704;54.242;12.442;2024-03-02T04:17:08;6.41;89.21
69503;SHT31;56704;54.242;12.442;2024-03-02T04:19:35;6.41;89.16
69503;SHT31;56704;54.242;12.442;2024-03-02T04:22:04;6.44;89.11
69503;SHT31;56704;54.242;12.442;2024-03-02T04:24:30;6.45;89.07
69503;SHT31;56704;54.242;12.442;2024-03-02T04:26:57;6.46;89.10
69503;SHT31;56704;54.242;12.442;2024-03-02T04:29:23;6.51;89.14
69503;SHT31;56704;54.242;12.442;2024-03-02T04:31:50;6.49;89.21
69503;SHT31;56704;54.242;12.442;2024-03-02T04:34:16;6.54;89.10
69503;SHT31;56704;54.242;12.442;2024-03-02T04:36:43;6.56;89.15
69503;SHT31;56704;54.242;12.442;2024-03-02T04:39:11;6.55;89.23
69503;SHT31;56704;54.242;12.442;2024-03-02T04:41:37;6.58;89.36
69503;SHT31;56704;54.242;12.442;2024-03-02T04:44:04;6.61;89.38
69503;SHT31;56704;54.242;12.442;2024-03-02T04:46:33;6.64;89.36
69503;SHT31;56704;54.242;12.442;2024-03-02T04:48:59;6.69;89.30
69503;SHT31;56704;54.242;12.442;2024-03-02T04:51:26;6.69;89.23
69503;SHT31;56704;54.242;12.442;2024-03-02T04:53:53;6.72;89.23
69503;SHT31;56704;54.242;12.442;2024-03-02T04:56:21;6.73;89.23
69503;SHT31;56704;54.242;12.442;2024-03-02T04:59:05;6.76;89.22
69503;SHT31;56704;54.242;12.442;2024-03-02T05:01:32;6.79;89.12
69503;SHT31;56704;54.242;12.442;2024-03-02T05:03:59;6.82;89.16
69503;SHT31;56704;54.242;12.442;2024-03-02T05:06:25;6.83;89.18
69503;SHT31;56704;54.242;12.442;2024-03-02T05:08:52;6.82;89.12
69503;SHT31;56704;54.242;12.442;2024-03-02T05:11:18;6.82;89.05
69503;SHT31;56704;54.242;12.442;2024-03-02T05:14:04;6.76;88.98
69503;SHT31;56704;54.242;12.442;2024-03-02T05:16:32;6.75;89.04
69503;SHT31;56704;54.242;12.442;2024-03-02T05:18:59;6.72;89.13
69503;SHT31;56704;54.242;12.442;2024-03-02T05:21:26;6.69;89.27
69503;SHT31;56704;54.242;12.442;2024-03-02T05:23:52;6.67;89.31
69503;SHT31;56704;54.242;12.442;2024-03-02T05:26:19;6.67;89.49
69503;SHT31;56704;54.242;12.442;2024-03-02T05:28:45;6.61;89.66
69503;SHT31;56704;54.242;12.442;2024-03-02T05:31:14;6.59;89.74
69503;SHT31;56704;54.242;12.442;2024-03-02T05:33:41;6.59;89.95
69503;SHT31;56704;54.242;12.442;2024-03-02T05:36:08;6.59;90.07
69503;SHT31;56704;54.242;12.442;2024-03-02T05:38:35;6.58;90.21
69503;SHT31;56704;54.242;12.442;2024-03-02T05:41:02;6.58;90.34
69503;SHT31;56704;54.242;12.442;2024-03-02T05:43:28;6.56;90.46
69503;SHT31;56704;54.242;12.442;2024-03-02T05:45:55;6.61;90.53
69503;SHT31;56704;54.242;12.442;2024-03-02T05:48:23;6.61;90.54
69503;SHT31;56704;54.242;12.442;2024-03-02T05:50:49;6.61;90.69
69503;SHT31;56704;54.242;12.442;2024-03-02T05:53:16;6.65;90.75
69503;SHT31;56704;54.242;12.442;2024-03-02T05:55:43;6.62;90.87
69503;SHT31;56704;54.242;12.442;2024-03-02T05:58:10;6.62;90.98
69503;SHT31;56704;54.242;12.442;2024-03-02T06:00:51;6.64;91.05
69503;SHT31;56704;54.242;12.442;2024-03-02T06:03:17;6.67;91.06
69503;SHT31;56704;54.242;12.442;2024-03-02T06:05:45;6.62;91.12
69503;SHT31;56704;54.242;12.442;2024-03-02T06:08:14;6.65;91.29
69503;SHT31;56704;54.242;12.442;2024-03-02T06:10:41;6.62;91.35
69503;SHT31;56704;54.242;12.442;2024-03-02T06:13:07;6.64;91.46
69503;SHT31;56704;54.242;12.442;2024-03-02T06:15:34;6.65;91.53
69503;SHT31;56704;54.242;12.442;2024-03-02T06:18:01;6.62;91.58
69503;SHT31;56704;54.242;12.442;2024-03-02T06:20:28;6.65;91.62
69503;SHT31;56704;54.242;12.442;2024-03-02T06:22:57;6.65;91.73
69503;SHT31;56704;54.242;12.442;2024-03-02T06:25:24;6.67;91.90
69503;SHT31;56704;54.242;12.442;2024-03-02T06:27:50;6.68;91.97
69503;SHT31;56704;54.242;12.442;2024-03-02T06:30:17;6.71;92.04
69503;SHT31;56704;54.242;12.442;2024-03-02T06:32:45;6.69;92.11
69503;SHT31;56704;54.242;12.442;2024-03-02T06:35:12;6.72;92.25
69503;SHT31;56704;54.242;12.442;2024-03-02T06:37:38;6.73;92.29
69503;SHT31;56704;54.242;12.442;2024-03-02T06:40:08;6.75;92.38
69503;SHT31;56704;54.242;12.442;2024-03-02T06:42:35;6.76;92.36
69503;SHT31;56704;54.242;12.442;2024-03-02T06:45:02;6.79;92.45
69503;SHT31;56704;54.242;12.442;2024-03-02T06:47:29;6.79;92.52
69503;SHT31;56704;54.242;12.442;2024-03-02T06:49:56;6.83;92.58
69503;SHT31;56704;54.242;12.442;2024-03-02T06:52:23;6.85;92.61
69503;SHT31;56704;54.242;12.442;2024-03-02T06:54:50;6.86;92.59
69503;SHT31;56704;54.242;12.442;2024-03-02T06:57:18;6.86;92.69
69503;SHT31;56704;54.242;12.442;2024-03-02T06:59:46;6.89;92.75
69503;SHT31;56704;54.242;12.442;2024-03-02T07:02:14;6.89;92.69
69503;SHT31;56704;54.242;12.442;2024-03-02T07:04:40;6.92;92.76
69503;SHT31;56704;54.242;12.442;2024-03-02T07:07:07;6.92;92.78
69503;SHT31;56704;54.242;12.442;2024-03-02T07:09:33;6.95;92.82
69503;SHT31;56704;54.242;12.442;2024-03-02T07:12:00;6.99;92.87
69503;SHT31;56704;54.242;12.442;2024-03-02T07:14:28;6.99;92.90
69503;SHT31;56704;54.242;12.442;2024-03-02T07:17:09;7.00;92.91
69503;SHT31;56704;54.242;12.442;2024-03-02T07:19:37;7.03;92.94
69503;SHT31;56704;54.242;12.442;2024-03-02T07:22:06;7.02;92.93
69503;SHT31;56704;54.242;12.442;2024-03-02T07:24:39;7.07;92.94
69503;SHT31;56704;54.242;12.442;2024-03-02T07:27:06;7.07;92.98
69503;SHT31;56704;54.242;12.442;2024-03-02T07:29:34;7.09;92.97
69503;SHT31;56704;54.242;12.442;2024-03-02T07:32:00;7.09;92.97
69503;SHT31;56704;54.242;12.442;2024-03-02T07:34:27;7.12;92.94
69503;SHT31;56704;54.242;12.442;2024-03-02T07:36:53;7.12;92.95
69503;SHT31;56704;54.242;12.442;2024-03-02T07:39:20;7.13;92.92
69503;SHT31;56704;54.242;12.442;2024-03-02T07:41:47;7.12;92.92
69503;SHT31;56704;54.242;12.442;2024-03-02T07:44:13;7.10;92.91
69503;SHT31;56704;54.242;12.442;2024-03-02T07:46:41;7.13;92.98
69503;SHT31;56704;54.242;12.442;2024-03-02T07:49:09;7.16;92.95
69503;SHT31;56704;54.242;12.442;2024-03-02T07:51:36;7.19;92.97
69503;SHT31;56704;54.242;12.442;2024-03-02T07:54:02;7.20;92.97
69503;SHT31;56704;54.242;12.442;2024-03-02T07:56:29;7.20;93.00
69503;SHT31;56704;54.242;12.442;2024-03-02T07:58:56;7.26;93.05
69503;SHT31;56704;54.242;12.442;2024-03-02T08:01:26;7.26;93.07
69503;SHT31;56704;54.242;12.442;2024-03-02T08:03:54;7.33;93.11
69503;SHT31;56704;54.242;12.442;2024-03-02T08:06:23;7.36;93.17
69503;SHT31;56704;54.242;12.442;2024-03-02T08:08:53;7.37;93.14
69503;SHT31;56704;54.242;12.442;2024-03-02T08:11:19;7.40;93.14
69503;SHT31;56704;54.242;12.442;2024-03-02T08:13:46;7.38;93.18
69503;SHT31;56704;54.242;12.442;2024-03-02T08:16:13;7.42;93.21
69503;SHT31;56704;54.242;12.442;2024-03-02T08:18:39;7.38;93.20
69503;SHT31;56704;54.242;12.442;2024-03-02T08:21:07;7.42;93.23
69503;SHT31;56704;54.242;12.442;2024-03-02T08:23:34;7.43;93.33
69503;SHT31;56704;54.242;12.442;2024-03-02T08:26:01;7.47;93.34
69503;SHT31;56704;54.242;12.442;2024-03-02T08:28:28;7.46;93.36
69503;SHT31;56704;54.242;12.442;2024-03-02T08:30:55;7.47;93.37
69503;SHT31;56704;54.242;12.442;2024-03-02T08:33:22;7.51;93.31
69503;SHT31;56704;54.242;12.442;2024-03-02T08:35:48;7.56;93.33
69503;SHT31;56704;54.242;12.442;2024-03-02T08:38:16;7.63;93.33
69503;SHT31;56704;54.242;12.442;2024-03-02T08:40:43;7.63;93.30
69503;SHT31;56704;54.242;12.442;2024-03-02T08:43:10;7.68;93.30
69503;SHT31;56704;54.242;12.442;2024-03-02T08:45:37;7.70;93.26
69503;SHT31;56704;54.242;12.442;2024-03-02T08:48:06;7.73;93.27
69503;SHT31;56704;54.242;12.442;2024-03-02T08:50:33;7.71;93.21
69503;SHT31;56704;54.242;12.442;2024-03-02T08:53:00;7.78;93.26
69503;SHT31;56704;54.242;12.442;2024-03-02T08:55:28;7.82;93.27
69503;SHT31;56704;54.242;12.442;2024-03-02T08:57:55;7.87;93.29
69503;SHT31;56704;54.242;12.442;2024-03-02T09:00:22;7.88;93.23
69503;SHT31;56704;54.242;12.442;2024-03-02T09:02:48;7.87;93.19
69503;SHT31;56704;54.242;12.442;2024-03-02T09:05:15;7.91;93.19
69503;SHT31;56704;54.242;12.442;2024-03-02T09:07:42;7.94;93.28
69503;SHT31;56704;54.242;12.442;2024-03-02T09:10:09;7.92;93.18
69503;SHT31;56704;54.242;12.442;2024-03-02T09:12:37;7.99;93.17
69503;SHT31;56704;54.242;12.442;2024-03-02T09:15:05;8.01;93.21
69503;SHT31;56704;54.242;12.442;2024-03-02T09:17:32;8.06;93.31
69503;SHT31;56704;54.242;12.442;2024-03-02T09:19:59;8.08;93.29
69503;SHT31;56704;54.242;12.442;2024-03-02T09:22:25;8.12;93.40
69503;SHT31;56704;54.242;12.442;2024-03-02T09:24:52;8.12;93.38
69503;SHT31;56704;54.242;12.442;2024-03-02T09:27:19;8.06;93.33
69503;SHT31;56704;54.242;12.442;2024-03-02T09:29:47;8.03;93.32
69503;SHT31;56704;54.242;12.442;2024-03-02T09:32:13;8.09;93.41
69503;SHT31;56704;54.242;12.442;2024-03-02T09:34:40;8.13;93.48
69503;SHT31;56704;54.242;12.442;2024-03-02T09:37:06;8.15;93.52
69503;SHT31;56704;54.242;12.442;2024-03-02T09:39:33;8.19;93.38
69503;SHT31;56704;54.242;12.442;2024-03-02T09:42:00;8.22;93.39
69503;SHT31;56704;54.242;12.442;2024-03-02T09:44:26;8.29;93.33
69503;SHT31;56704;54.242;12.442;2024-03-02T09:46:54;8.32;93.24
69503;SHT31;56704;54.242;12.442;2024-03-02T09:49:22;8.33;93.27
69503;SHT31;56704;54.242;12.442;2024-03-02T09:51:49;8.40;93.28
69503;SHT31;56704;54.242;12.442;2024-03-02T09:54:16;8.46;93.22
69503;SHT31;56704;54.242;12.442;2024-03-02T09:56:43;8.45;93.33
69503;SHT31;56704;54.242;12.442;2024-03-02T09:59:10;8.43;93.18
69503;SHT31;56704;54.242;12.442;2024-03-02T10:01:37;8.40;93.13
69503;SHT31;56704;54.242;12.442;2024-03-02T10:04:05;8.39;93.32
69503;SHT31;56704;54.242;12.442;2024-03-02T10:06:32;8.43;93.29
69503;SHT31;56704;54.242;12.442;2024-03-02T10:08:59;8.48;93.37
69503;SHT31;56704;54.242;12.442;2024-03-02T10:11:26;8.46;93.30
69503;SHT31;56704;54.242;12.442;2024-03-02T10:14:12;8.49;93.42
69503;SHT31;56704;54.242;12.442;2024-03-02T10:16:41;8.49;93.33
69503;SHT31;56704;54.242;12.442;2024-03-02T10:19:19;8.49;93.33
69503;SHT31;56704;54.242;12.442;2024-03-02T10:21:46;8.52;93.31
69503;SHT31;56704;54.242;12.442;2024-03-02T10:24:14;8.52;93.23
69503;SHT31;56704;54.242;12.442;2024-03-02T10:26:41;8.54;93.21
69503;SHT31;56704;54.242;12.442;2024-03-02T10:29:08;8.48;93.16
69503;SHT31;56704;54.242;12.442;2024-03-02T10:31:37;8.43;93.03
69503;SHT31;56704;54.242;12.442;2024-03-02T10:34:04;8.39;93.12
69503;SHT31;56704;54.242;12.442;2024-03-02T10:36:32;8.36;93.24
69503;SHT31;56704;54.242;12.442;2024-03-02T10:39:01;8.43;93.38
69503;SHT31;56704;54.242;12.442;2024-03-02T10:41:31;8.39;93.27
69503;SHT31;56704;54.242;12.442;2024-03-02T10:43:59;8.39;93.37
69503;SHT31;56704;54.242;12.442;2024-03-02T10:46:28;8.42;93.46
69503;SHT31;56704;54.242;12.442;2024-03-02T10:48:55;8.46;93.55
69503;SHT31;56704;54.242;12.442;2024-03-02T10:51:24;8.53;93.58
69503;SHT31;56704;54.242;12.442;2024-03-02T10:53:52;8.53;93.51
69503;SHT31;56704;54.242;12.442;2024-03-02T10:56:25;8.54;93.56
69503;SHT31;56704;54.242;12.442;2024-03-02T10:58:55;8.52;93.57
69503;SHT31;56704;54.242;12.442;2024-03-02T11:01:27;8.50;93.47
69503;SHT31;56704;54.242;12.442;2024-03-02T11:03:56;8.45;93.47
69503;SHT31;56704;54.242;12.442;2024-03-02T11:06:23;8.45;93.56
69503;SHT31;56704;54.242;12.442;2024-03-02T11:08:55;8.43;93.59
69503;SHT31;56704;54.242;12.442;2024-03-02T11:11:28;8.45;93.61
69503;SHT31;56704;54.242;12.442;2024-03-02T11:13:57;8.43;93.53
69503;SHT31;56704;54.242;12.442;2024-03-02T11:16:34;8.45;93.61
69503;SHT31;56704;54.242;12.442;2024-03-02T11:19:04;8.49;93.67
69503;SHT31;56704;54.242;12.442;2024-03-02T11:21:32;8.53;93.72
69503;SHT31;56704;54.242;12.442;2024-03-02T11:24:00;8.64;93.70
69503;SHT31;56704;54.242;12.442;2024-03-02T11:26:28;8.73;93.65
69503;SHT31;56704;54.242;12.442;2024-03-02T11:28:54;8.80;93.63
69503;SHT31;56704;54.242;12.442;2024-03-02T11:34:29;9.20;93.50
69503;SHT31;56704;54.242;12.442;2024-03-02T11:36:56;9.21;93.22
69503;SHT31;56704;54.242;12.442;2024-03-02T11:39:25;9.31;93.31
69503;SHT31;56704;54.242;12.442;2024-03-02T11:41:52;9.31;92.86
69503;SHT31;56704;54.242;12.442;2024-03-02T11:44:19;9.32;92.83
69503;SHT31;56704;54.242;12.442;2024-03-02T11:46:46;9.30;93.01
69503;SHT31;56704;54.242;12.442;2024-03-02T11:49:36;9.34;92.86
69503;SHT31;56704;54.242;12.442;2024-03-02T11:52:05;9.35;92.68
69503;SHT31;56704;54.242;12.442;2024-03-02T11:54:33;9.30;92.46
69503;SHT31;56704;54.242;12.442;2024-03-02T11:57:01;9.27;92.52
69503;SHT31;56704;54.242;12.442;2024-03-02T11:59:28;9.31;92.62
69503;SHT31;56704;54.242;12.442;2024-03-02T12:01:55;9.39;92.49
69503;SHT31;56704;54.242;12.442;2024-03-02T12:04:22;9.43;92.45
69503;SHT31;56704;54.242;12.442;2024-03-02T12:06:54;9.51;92.28
69503;SHT31;56704;54.242;12.442;2024-03-02T12:09:24;9.59;92.24
69503;SHT31;56704;54.242;12.442;2024-03-02T12:12:06;9.65;92.30
69503;SHT31;56704;54.242;12.442;2024-03-02T12:14:33;9.66;91.82
69503;SHT31;56704;54.242;12.442;2024-03-02T12:17:01;9.71;91.73
69503;SHT31;56704;54.242;12.442;2024-03-02T12:19:28;9.72;91.67
69503;SHT31;56704;54.242;12.442;2024-03-02T12:21:55;9.75;91.82
69503;SHT31;56704;54.242;12.442;2024-03-02T12:24:22;9.79;91.66
69503;SHT31;56704;54.242;12.442;2024-03-02T12:26:49;9.81;91.55
69503;SHT31;56704;54.242;12.442;2024-03-02T12:29:18;9.83;91.54
69503;SHT31;56704;54.242;12.442;2024-03-02T12:31:45;9.93;91.51
69503;SHT31;56704;54.242;12.442;2024-03-02T12:34:12;10.04;91.36
69503;SHT31;56704;54.242;12.442;2024-03-02T12:36:40;10.16;91.15
69503;SHT31;56704;54.242;12.442;2024-03-02T12:39:07;10.40;91.12
69503;SHT31;56704;54.242;12.442;2024-03-02T12:41:36;10.67;90.91
69503;SHT31;56704;54.242;12.442;2024-03-02T12:44:02;10.96;90.22
69503;SHT31;56704;54.242;12.442;2024-03-02T12:46:31;11.26;89.86
69503;SHT31;56704;54.242;12.442;2024-03-02T12:48:57;11.40;88.74
69503;SHT31;56704;54.242;12.442;2024-03-02T12:51:24;11.71;88.22
69503;SHT31;56704;54.242;12.442;2024-03-02T12:53:53;12.25;87.29
69503;SHT31;56704;54.242;12.442;2024-03-02T12:56:20;12.97;85.16
69503;SHT31;56704;54.242;12.442;2024-03-02T12:58:47;13.43;83.65
69503;SHT31;56704;54.242;12.442;2024-03-02T13:01:14;12.63;81.15
69503;SHT31;56704;54.242;12.442;2024-03-02T13:03:48;12.56;83.48
69503;SHT31;56704;54.242;12.442;2024-03-02T13:06:14;12.55;83.52
69503;SHT31;56704;54.242;12.442;2024-03-02T13:08:42;12.41;83.24
69503;SHT31;56704;54.242;12.442;2024-03-02T13:11:09;12.45;84.17
69503;SHT31;56704;54.242;12.442;2024-03-02T13:13:36;12.38;84.50
69503;SHT31;56704;54.242;12.442;2024-03-02T13:16:04;12.28;84.46
69503;SHT31;56704;54.242;12.442;2024-03-02T13:18:34;12.16;84.84
69503;SHT31;56704;54.242;12.442;2024-03-02T13:21:02;12.08;84.81
69503;SHT31;56704;54.242;12.442;2024-03-02T13:23:28;11.88;84.70
69503;SHT31;56704;54.242;12.442;2024-03-02T13:25:56;11.73;84.60
69503;SHT31;56704;54.242;12.442;2024-03-02T13:28:23;11.60;85.88
69503;SHT31;56704;54.242;12.442;2024-03-02T13:30:50;11.62;86.48
69503;SHT31;56704;54.242;12.442;2024-03-02T13:33:16;11.63;86.83
69503;SHT31;56704;54.242;12.442;2024-03-02T13:35:48;11.62;86.86
69503;SHT31;56704;54.242;12.442;2024-03-02T13:38:16;11.59;86.89
69503;SHT31;56704;54.242;12.442;2024-03-02T13:40:43;11.55;87.13
69503;SHT31;56704;54.242;12.442;2024-03-02T13:43:09;11.55;87.33
69503;SHT31;56704;54.242;12.442;2024-03-02T13:45:37;11.50;87.24
69503;SHT31;56704;54.242;12.442;2024-03-02T13:48:04;11.55;87.44
69503;SHT31;56704;54.242;12.442;2024-03-02T13:50:30;11.53;87.27
69503;SHT31;56704;54.242;12.442;2024-03-02T13:53:07;11.49;87.33
69503;SHT31;56704;54.242;12.442;2024-03-02T13:55:34;11.52;87.46
69503;SHT31;56704;54.242;12.442;2024-03-02T13:58:01;11.49;87.57
69503;SHT31;56704;54.242;12.442;2024-03-02T14:00:28;11.52;87.63
69503;SHT31;56704;54.242;12.442;2024-03-02T14:02:54;11.47;87.59
69503;SHT31;56704;54.242;12.442;2024-03-02T14:05:21;11.46;87.59
69503;SHT31;56704;54.242;12.442;2024-03-02T14:07:48;11.44;87.66
69503;SHT31;56704;54.242;12.442;2024-03-02T14:10:16;11.46;87.78
69503;SHT31;56704;54.242;12.442;2024-03-02T14:12:47;11.40;87.86
69503;SHT31;56704;54.242;12.442;2024-03-02T14:15:14;11.37;87.88
69503;SHT31;56704;54.242;12.442;2024-03-02T14:17:40;11.40;88.16
69503;SHT31;56704;54.242;12.442;2024-03-02T14:20:08;11.32;87.98
69503;SHT31;56704;54.242;12.442;2024-03-02T14:22:37;11.25;87.98
69503;SHT31;56704;54.242;12.442;2024-03-02T14:25:04;11.20;88.28
69503;SHT31;56704;54.242;12.442;2024-03-02T14:27:32;11.16;88.40
69503;SHT31;56704;54.242;12.442;2024-03-02T14:30:00;11.11;88.47
69503;SHT31;56704;54.242;12.442;2024-03-02T14:32:27;11.01;88.35
69503;SHT31;56704;54.242;12.442;2024-03-02T14:34:54;10.98;88.53
69503;SHT31;56704;54.242;12.442;2024-03-02T14:37:20;10.92;88.74
69503;SHT31;56704;54.242;12.442;2024-03-02T14:39:47;10.92;88.90
69503;SHT31;56704;54.242;12.442;2024-03-02T14:42:14;10.87;88.81
69503;SHT31;56704;54.242;12.442;2024-03-02T14:44:42;10.92;88.90
69503;SHT31;56704;54.242;12.442;2024-03-02T14:47:09;10.88;89.17
69503;SHT31;56704;54.242;12.442;2024-03-02T14:49:36;10.84;89.18
69503;SHT31;56704;54.242;12.442;2024-03-02T14:52:05;10.92;89.35
69503;SHT31;56704;54.242;12.442;2024-03-02T14:54:32;10.89;89.42
69503;SHT31;56704;54.242;12.442;2024-03-02T14:57:00;10.89;89.40
69503;SHT31;56704;54.242;12.442;2024-03-02T14:59:27;10.88;89.44
69503;SHT31;56704;54.242;12.442;2024-03-02T15:01:56;10.84;89.41
69503;SHT31;56704;54.242;12.442;2024-03-02T15:04:23;10.87;89.47
69503;SHT31;56704;54.242;12.442;2024-03-02T15:06:50;10.87;89.54
69503;SHT31;56704;54.242;12.442;2024-03-02T15:09:16;10.89;89.58
69503;SHT31;56704;54.242;12.442;2024-03-02T15:11:45;10.87;89.59
69503;SHT31;56704;54.242;12.442;2024-03-02T15:14:11;10.88;89.61
69503;SHT31;56704;54.242;12.442;2024-03-02T15:16:38;10.82;89.62
69503;SHT31;56704;54.242;12.442;2024-03-02T15:19:06;10.78;89.57
69503;SHT31;56704;54.242;12.442;2024-03-02T15:21:33;10.78;89.70
69503;SHT31;56704;54.242;12.442;2024-03-02T15:23:59;10.78;89.75
69503;SHT31;56704;54.242;12.442;2024-03-02T15:26:26;10.79;89.80
69503;SHT31;56704;54.242;12.442;2024-03-02T15:28:52;10.71;89.79
69503;SHT31;56704;54.242;12.442;2024-03-02T15:31:21;10.72;89.89
69503;SHT31;56704;54.242;12.442;2024-03-02T15:33:47;10.72;89.93
69503;SHT31;56704;54.242;12.442;2024-03-02T15:36:16;10.71;89.98